createdAt,value
2023-01-10T00:01:11.845Z,302.50
2023-01-10T00:03:44.034Z,119.40
2023-01-10T00:06:16.306Z,382.90
2023-01-10T00:08:48.628Z,136.10
2023-01-10T00:11:38.665Z,261.40
2023-01-10T00:14:11.499Z,218.70
2023-01-10T00:16:43.947Z,99.40
2023-01-10T00:19:16.142Z,120.40
2023-01-10T00:21:48.336Z,176.80
2023-01-10T00:24:20.591Z,323.30
2023-01-10T00:26:54.168Z,126.00
2023-01-10T00:29:31.482Z,108.50
2023-01-10T00:32:04.049Z,100.00
2023-01-10T00:34:36.816Z,249.20
2023-01-10T00:37:09.153Z,126.20
2023-01-10T00:39:41.331Z,79.00
2023-01-10T00:42:31.847Z,146.90
2023-01-10T00:45:04.230Z,314.10
2023-01-10T00:47:36.437Z,82.50
2023-01-10T00:50:10.401Z,198.10
2023-01-10T00:52:42.798Z,204.20
2023-01-10T00:55:15.130Z,87.20
2023-01-10T00:57:47.285Z,75.20
2023-01-10T01:00:20.375Z,184.10
2023-01-10T01:02:52.815Z,189.50
2023-01-10T01:05:25.195Z,218.00
2023-01-10T01:07:57.404Z,79.10
2023-01-10T01:10:29.630Z,55.40
2023-01-10T01:13:07.695Z,59.10
2023-01-10T01:15:40.345Z,78.10
2023-01-10T01:18:14.237Z,77.50
2023-01-10T01:20:47.695Z,49.60
2023-01-10T01:23:19.854Z,50.70
2023-01-10T01:25:55.021Z,53.80
2023-01-10T01:28:27.232Z,162.10
2023-01-10T01:30:59.465Z,135.50
2023-01-10T01:33:31.931Z,137.40
2023-01-10T01:36:04.175Z,77.70
2023-01-10T01:38:36.443Z,62.40
2023-01-10T01:41:29.345Z,55.20
2023-01-10T01:44:11.909Z,49.90
2023-01-10T01:46:46.706Z,42.00
2023-01-10T01:49:24.338Z,40.80
2023-01-10T01:52:03.952Z,44.80
2023-01-10T01:54:37.481Z,46.30
2023-01-10T01:57:15.128Z,42.10
2023-01-10T01:59:51.134Z,46.40
2023-01-10T02:02:27.383Z,43.20
2023-01-10T02:05:01.537Z,46.10
2023-01-10T02:07:38.597Z,42.20
2023-01-10T02:10:15.894Z,38.00
2023-01-10T02:12:50.688Z,35.10
2023-01-10T02:15:23.161Z,56.80
2023-01-10T02:17:56.048Z,41.40
2023-01-10T02:20:30.547Z,54.50
2023-01-10T02:23:40.270Z,43.80
2023-01-10T02:26:39.855Z,43.40
2023-01-10T02:29:54.398Z,45.30
2023-01-10T02:32:45.824Z,46.50
2023-01-10T02:35:36.772Z,61.50
2023-01-10T02:38:17.960Z,79.30
2023-01-10T02:41:01.854Z,53.90
2023-01-10T02:43:36.833Z,47.40
2023-01-10T02:48:42.190Z,45.60
2023-01-10T02:51:20.295Z,61.90
2023-01-10T02:53:57.400Z,136.40
2023-01-10T02:56:51.102Z,99.40
2023-01-10T02:59:52.255Z,104.20
2023-01-10T03:02:41.585Z,57.20
2023-01-10T03:05:26.340Z,51.50
2023-01-10T03:08:10.293Z,60.20
2023-01-10T03:10:51.663Z,43.00
2023-01-10T03:13:29.931Z,42.00
2023-01-10T03:16:03.520Z,61.90
2023-01-10T03:18:42.479Z,65.30
2023-01-10T03:21:15.133Z,54.40
2023-01-10T03:23:50.552Z,54.40
2023-01-10T03:26:30.694Z,42.70
2023-01-10T03:29:07.666Z,45.50
2023-01-10T03:31:46.058Z,55.10
2023-01-10T03:34:18.964Z,43.50
2023-01-10T03:37:00.939Z,64.90
2023-01-10T03:39:42.218Z,46.30
2023-01-10T03:42:20.918Z,37.90
2023-01-10T03:45:01.266Z,45.40
2023-01-10T03:47:41.125Z,42.60
2023-01-10T03:50:19.029Z,52.80
2023-01-10T03:52:51.329Z,54.40
2023-01-10T03:55:27.028Z,47.00
2023-01-10T03:57:59.243Z,44.30
2023-01-10T04:00:32.016Z,52.20
2023-01-10T04:03:04.613Z,54.20
2023-01-10T04:05:37.042Z,59.90
2023-01-10T04:08:09.633Z,53.10
2023-01-10T04:10:41.927Z,37.80
2023-01-10T04:13:14.250Z,35.40
2023-01-10T04:15:46.470Z,37.90
2023-01-10T04:18:19.329Z,36.10
2023-01-10T04:20:52.289Z,32.00
2023-01-10T04:23:24.643Z,37.00
2023-01-10T04:25:56.808Z,32.10
2023-01-10T04:28:29.058Z,37.80
2023-01-10T04:31:01.399Z,39.90
2023-01-10T04:33:33.775Z,43.10
2023-01-10T04:36:06.431Z,48.10
2023-01-10T04:38:38.731Z,41.60
2023-01-10T04:41:12.253Z,39.50
2023-01-10T04:43:44.392Z,33.00
2023-01-10T04:46:16.662Z,33.80
2023-01-10T04:48:48.805Z,29.20
2023-01-10T04:51:21.002Z,26.80
2023-01-10T04:53:53.189Z,29.50
2023-01-10T04:56:25.923Z,28.30
2023-01-10T04:58:58.986Z,26.70
2023-01-10T05:01:31.315Z,39.80
2023-01-10T05:04:04.129Z,31.50
2023-01-10T05:06:37.213Z,35.80
2023-01-10T05:09:10.152Z,31.10
2023-01-10T05:11:42.335Z,42.50
2023-01-10T05:14:14.458Z,31.90
2023-01-10T05:16:46.713Z,30.50
2023-01-10T05:19:18.919Z,30.90
2023-01-10T05:21:53.439Z,34.90
2023-01-10T05:24:25.657Z,109.40
2023-01-10T05:26:57.811Z,74.80
2023-01-10T05:29:29.969Z,463.90
2023-01-10T05:32:02.514Z,141.90
2023-01-10T05:34:34.715Z,45.60
2023-01-10T05:37:06.912Z,83.10
2023-01-10T05:39:40.132Z,736.80
2023-01-10T05:42:12.271Z,170.60
2023-01-10T05:44:44.414Z,717.20
2023-01-10T05:47:16.633Z,359.70
2023-01-10T05:49:48.774Z,169.80
2023-01-10T05:52:20.968Z,223.40
2023-01-10T05:54:53.137Z,75.80
2023-01-10T05:57:25.874Z,32.20
2023-01-10T05:59:58.036Z,28.70
2023-01-10T06:02:30.233Z,49.60
2023-01-10T06:05:02.597Z,58.70
2023-01-10T06:07:34.850Z,56.60
2023-01-10T06:10:08.263Z,32.80
2023-01-10T06:12:41.999Z,27.40
2023-01-10T06:15:14.685Z,59.20
2023-01-10T06:17:46.876Z,82.10
2023-01-10T06:20:20.123Z,42.50
2023-01-10T06:22:52.594Z,47.50
2023-01-10T06:25:24.790Z,66.40
2023-01-10T06:27:57.444Z,26.80
2023-01-10T06:30:29.944Z,24.80
2023-01-10T06:33:05.191Z,28.20
2023-01-10T06:35:37.868Z,28.30
2023-01-10T06:38:10.229Z,28.30
2023-01-10T06:40:42.432Z,32.50
2023-01-10T06:43:14.724Z,31.50
2023-01-10T06:45:46.894Z,41.40
2023-01-10T06:48:19.116Z,34.40
2023-01-10T06:50:52.514Z,43.30
2023-01-10T06:53:24.741Z,36.90
2023-01-10T06:55:59.087Z,32.70
2023-01-10T06:58:31.325Z,36.10
2023-01-10T07:01:03.632Z,34.70
2023-01-10T07:03:35.951Z,35.20
2023-01-10T07:06:10.323Z,32.10
2023-01-10T07:08:44.014Z,65.40
2023-01-10T07:11:17.049Z,44.50
2023-01-10T07:13:49.306Z,36.00
2023-01-10T07:16:21.517Z,37.30
2023-01-10T07:18:53.788Z,48.90
2023-01-10T07:21:25.955Z,46.80
2023-01-10T07:23:58.302Z,339.20
2023-01-10T07:26:30.552Z,207.30
2023-01-10T07:29:03.001Z,140.80
2023-01-10T07:31:35.554Z,323.90
2023-01-10T07:34:07.953Z,535.30
2023-01-10T07:36:40.168Z,394.20
2023-01-10T07:39:12.464Z,314.70
2023-01-10T07:41:44.662Z,119.00
2023-01-10T07:44:20.725Z,197.30
2023-01-10T07:46:52.911Z,232.90
2023-01-10T07:49:25.132Z,128.90
2023-01-10T07:51:57.369Z,116.80
2023-01-10T07:54:29.517Z,34.10
2023-01-10T07:57:01.730Z,25.00
2023-01-10T07:59:34.000Z,26.80
2023-01-10T08:02:06.100Z,29.40
2023-01-10T08:04:39.094Z,46.70
2023-01-10T08:07:11.390Z,45.70
2023-01-10T08:09:43.770Z,217.30
2023-01-10T08:12:16.116Z,134.70
2023-01-10T08:14:48.337Z,65.20
2023-01-10T08:17:20.548Z,49.20
2023-01-10T08:19:52.893Z,63.10
2023-01-10T08:22:25.084Z,67.40
2023-01-10T08:24:57.290Z,84.50
2023-01-10T08:27:29.448Z,85.00
2023-01-10T08:30:01.666Z,54.40
2023-01-10T08:32:34.040Z,57.40
2023-01-10T08:35:07.037Z,81.70
2023-01-10T08:37:39.220Z,80.20
2023-01-10T08:40:16.409Z,92.70
2023-01-10T08:42:48.609Z,58.30
2023-01-10T08:45:21.078Z,45.20
2023-01-10T08:47:53.246Z,62.60
2023-01-10T08:50:26.337Z,70.90
2023-01-10T08:53:00.633Z,62.40
2023-01-10T08:55:35.421Z,55.10
2023-01-10T08:58:07.575Z,103.10
2023-01-10T09:00:39.824Z,92.70
2023-01-10T09:03:12.166Z,138.80
2023-01-10T09:05:44.874Z,85.60
2023-01-10T09:08:17.068Z,43.50
2023-01-10T09:10:49.481Z,40.10
2023-01-10T09:13:21.815Z,49.70
2023-01-10T09:15:54.426Z,42.60
2023-01-10T09:18:26.767Z,37.40
2023-01-10T09:20:58.916Z,37.40
2023-01-10T09:23:31.104Z,43.00
2023-01-10T09:26:03.730Z,31.50
2023-01-10T09:28:36.080Z,43.90
2023-01-10T09:31:11.480Z,40.90
2023-01-10T09:33:47.169Z,46.60
2023-01-10T09:36:19.839Z,51.40
2023-01-10T09:38:51.975Z,39.90
2023-01-10T09:41:57.435Z,29.80
2023-01-10T09:44:43.538Z,27.60
2023-01-10T09:47:23.475Z,49.90
2023-01-10T09:50:07.973Z,29.40
2023-01-10T09:52:45.204Z,30.10
2023-01-10T09:55:28.239Z,28.80
2023-01-10T09:58:02.803Z,25.60
2023-01-10T10:00:42.171Z,26.30
2023-01-10T10:03:25.305Z,23.80
2023-01-10T10:06:10.508Z,48.10
2023-01-10T10:08:45.412Z,42.10
2023-01-10T10:11:42.351Z,51.90
2023-01-10T10:14:27.414Z,28.10
2023-01-10T10:17:16.023Z,23.30
2023-01-10T10:20:01.887Z,27.00
2023-01-10T10:22:47.217Z,31.50
2023-01-10T10:28:08.498Z,26.80
2023-01-10T10:30:57.945Z,29.50
2023-01-10T10:33:42.502Z,32.70
2023-01-10T10:36:21.226Z,50.10
2023-01-10T10:38:57.774Z,48.40
2023-01-10T10:41:35.751Z,33.50
2023-01-10T10:44:24.100Z,41.80
2023-01-10T10:46:58.367Z,34.00
2023-01-10T10:49:39.351Z,27.50
2023-01-10T10:52:20.963Z,26.00
2023-01-10T10:54:53.665Z,26.70
2023-01-10T10:57:29.085Z,22.60
2023-01-10T11:00:03.638Z,23.10
2023-01-10T11:02:43.815Z,24.70
2023-01-10T11:05:22.798Z,30.10
2023-01-10T11:08:05.660Z,42.30
2023-01-10T11:10:39.396Z,32.90
2023-01-10T11:13:28.428Z,38.00
2023-01-10T11:16:01.930Z,37.00
2023-01-10T11:18:35.101Z,32.50
2023-01-10T11:21:10.745Z,34.10
2023-01-10T11:23:52.092Z,30.20
2023-01-10T11:26:31.409Z,29.00
2023-01-10T11:29:15.866Z,31.40
2023-01-10T11:31:49.822Z,33.20
2023-01-10T11:34:26.756Z,29.90
2023-01-10T11:37:02.180Z,27.50
2023-01-10T11:39:35.409Z,26.10
2023-01-10T11:42:30.730Z,29.10
2023-01-10T11:45:24.010Z,28.80
2023-01-10T11:48:00.211Z,36.10
2023-01-10T11:50:36.079Z,37.00
2023-01-10T11:53:29.392Z,35.20
2023-01-10T11:56:02.727Z,31.20
2023-01-10T11:58:36.564Z,35.50
2023-01-10T12:01:26.542Z,27.00
2023-01-10T12:04:00.044Z,29.60
2023-01-10T12:06:33.679Z,28.60
2023-01-10T12:09:06.093Z,37.10
2023-01-10T12:11:38.336Z,34.40
2023-01-10T12:14:22.210Z,35.20
2023-01-10T12:17:02.416Z,29.90
2023-01-10T12:19:34.871Z,29.20
2023-01-10T12:22:09.058Z,32.10
2023-01-10T12:24:45.291Z,30.20
2023-01-10T12:27:20.879Z,37.70
2023-01-10T12:30:00.919Z,37.40
2023-01-10T12:32:39.587Z,35.10
2023-01-10T12:35:17.874Z,44.00
2023-01-10T12:37:54.293Z,65.70
2023-01-10T12:40:38.728Z,61.70
2023-01-10T12:43:44.222Z,81.00
2023-01-10T12:46:40.972Z,56.40
2023-01-10T12:49:24.272Z,56.00
2023-01-10T12:52:01.049Z,43.90
2023-01-10T12:54:33.832Z,44.00
2023-01-10T12:57:17.591Z,169.00
2023-01-10T12:59:50.919Z,147.50
2023-01-10T13:02:27.844Z,71.60
2023-01-10T13:05:04.314Z,55.90
2023-01-10T13:07:38.995Z,66.20
2023-01-10T13:10:17.202Z,61.40
2023-01-10T13:12:55.157Z,61.30
2023-01-10T13:15:31.520Z,71.70
2023-01-10T13:18:07.633Z,127.80
2023-01-10T13:20:44.466Z,100.00
2023-01-10T13:23:30.226Z,106.30
2023-01-10T13:26:09.045Z,99.70
2023-01-10T13:28:54.194Z,100.00
2023-01-10T13:31:30.203Z,82.10
2023-01-10T13:34:07.711Z,73.20
2023-01-10T13:36:42.374Z,59.20
2023-01-10T13:39:25.856Z,53.60
2023-01-10T13:42:43.559Z,54.30
2023-01-10T13:45:20.831Z,49.80
2023-01-10T13:48:25.388Z,50.60
2023-01-10T13:51:19.389Z,36.80
2023-01-10T13:53:58.069Z,33.70
2023-01-10T13:56:41.589Z,35.30
2023-01-10T14:00:26.377Z,33.70
2023-01-10T14:02:58.533Z,37.10
2023-01-10T14:05:30.984Z,38.90
2023-01-10T14:08:03.945Z,39.10
2023-01-10T14:10:36.318Z,38.10
2023-01-10T14:13:19.901Z,35.80
2023-01-10T14:15:52.251Z,49.40
2023-01-10T14:18:27.158Z,45.50
2023-01-10T14:23:36.556Z,48.90
2023-01-10T14:26:10.473Z,44.70
2023-01-10T14:28:43.512Z,38.10
2023-01-10T14:31:22.544Z,39.80
2023-01-10T14:33:56.141Z,44.60
2023-01-10T14:36:32.359Z,53.00
2023-01-10T14:39:08.364Z,72.30
2023-01-10T14:41:44.627Z,92.70
2023-01-10T14:44:23.792Z,128.20
2023-01-10T14:46:58.356Z,181.80
2023-01-10T14:49:34.094Z,98.70
2023-01-10T14:52:19.487Z,93.00
2023-01-10T14:57:29.308Z,307.70
2023-01-10T15:00:14.678Z,175.70
2023-01-10T15:02:50.231Z,112.80
2023-01-10T15:05:26.631Z,111.10
2023-01-10T15:08:19.108Z,117.80
2023-01-10T15:10:54.387Z,101.40
2023-01-10T15:13:29.487Z,78.00
2023-01-10T15:16:02.702Z,76.20
2023-01-10T15:18:39.057Z,58.00
2023-01-10T15:21:14.896Z,54.50
2023-01-10T15:23:49.122Z,52.20
2023-01-10T15:26:28.655Z,51.00
2023-01-10T15:29:17.220Z,69.40
2023-01-10T15:31:49.797Z,88.70
2023-01-10T15:34:25.298Z,74.80
2023-01-10T15:36:59.491Z,81.60
2023-01-10T15:39:34.906Z,90.40
2023-01-10T15:42:10.267Z,54.60
2023-01-10T15:44:45.302Z,56.30
2023-01-10T15:47:40.211Z,67.10
2023-01-10T15:50:28.656Z,63.50
2023-01-10T15:53:02.564Z,61.80
2023-01-10T15:55:48.343Z,58.60
2023-01-10T15:58:28.752Z,57.50
2023-01-10T16:01:02.469Z,52.20
2023-01-10T16:03:38.200Z,46.50
2023-01-10T16:06:23.238Z,49.00
2023-01-10T16:08:57.201Z,55.50
2023-01-10T16:11:54.254Z,65.20
2023-01-10T16:14:26.677Z,65.70
2023-01-10T16:16:58.895Z,70.90
2023-01-10T16:19:31.128Z,68.70
2023-01-10T16:22:03.357Z,80.70
2023-01-10T16:24:37.732Z,73.50
2023-01-10T16:27:11.506Z,69.40
2023-01-10T16:29:44.657Z,56.20
2023-01-10T16:32:17.550Z,79.60
2023-01-10T16:34:50.016Z,64.30
2023-01-10T16:37:22.312Z,64.90
2023-01-10T16:39:54.504Z,65.40
2023-01-10T16:42:44.311Z,75.60
2023-01-10T16:45:16.589Z,73.90
2023-01-10T16:47:48.718Z,78.00
2023-01-10T16:50:21.228Z,69.30
2023-01-10T16:52:53.429Z,65.80
2023-01-10T16:55:30.965Z,80.20
2023-01-10T16:58:03.158Z,73.80
2023-01-10T17:00:35.339Z,75.70
2023-01-10T17:03:10.691Z,68.00
2023-01-10T17:05:43.377Z,63.10
2023-01-10T17:08:19.916Z,77.60
2023-01-10T17:10:56.337Z,187.00
2023-01-10T17:13:32.011Z,421.20
2023-01-10T17:16:04.304Z,543.00
2023-01-10T17:18:39.331Z,566.30
2023-01-10T17:21:17.558Z,265.70
2023-01-10T17:23:50.544Z,156.40
2023-01-10T17:26:23.476Z,132.10
2023-01-10T17:28:56.337Z,133.20
2023-01-10T17:31:28.545Z,78.50
2023-01-10T17:34:00.982Z,80.80
2023-01-10T17:36:38.674Z,72.70
2023-01-10T17:39:11.549Z,57.50
2023-01-10T17:41:44.628Z,60.20
2023-01-10T17:44:16.847Z,72.60
2023-01-10T17:46:49.066Z,88.70
2023-01-10T17:49:21.257Z,122.00
2023-01-10T17:51:54.892Z,93.20
2023-01-10T17:54:28.082Z,86.60
2023-01-10T17:57:00.275Z,56.60
2023-01-10T17:59:32.915Z,56.60
2023-01-10T18:02:05.329Z,178.80
2023-01-10T18:04:37.681Z,316.70
2023-01-10T18:07:11.778Z,300.40
2023-01-10T18:09:45.268Z,411.10
2023-01-10T18:12:17.507Z,165.80
2023-01-10T18:14:50.919Z,86.70
2023-01-10T18:17:23.230Z,85.10
2023-01-10T18:19:55.394Z,70.30
2023-01-10T18:22:45.531Z,89.90
2023-01-10T18:25:18.004Z,71.00
2023-01-10T18:27:52.407Z,63.60
2023-01-10T18:30:25.140Z,67.60
2023-01-10T18:32:57.975Z,111.10
2023-01-10T18:35:30.441Z,291.70
2023-01-10T18:38:02.921Z,117.80
2023-01-10T18:40:35.067Z,77.20
2023-01-10T18:43:07.256Z,71.30
2023-01-10T18:45:39.504Z,98.60
2023-01-10T18:48:12.391Z,127.00
2023-01-10T18:50:47.325Z,118.00
2023-01-10T18:55:57.289Z,110.20
2023-01-10T18:58:32.617Z,102.50
2023-01-10T19:01:09.621Z,85.60
2023-01-10T19:03:42.117Z,266.00
2023-01-10T19:06:16.870Z,248.20
2023-01-10T19:08:51.251Z,104.60
2023-01-10T19:11:24.150Z,275.40
2023-01-10T19:14:14.724Z,140.30
2023-01-10T19:16:46.977Z,88.70
2023-01-10T19:19:19.320Z,124.90
2023-01-10T19:21:51.537Z,109.40
2023-01-10T19:24:27.605Z,132.00
2023-01-10T19:26:59.922Z,161.20
2023-01-10T19:29:32.547Z,108.50
2023-01-10T19:32:05.261Z,96.10
2023-01-10T19:34:37.564Z,86.00
2023-01-10T19:37:09.818Z,99.90
2023-01-10T19:39:42.040Z,96.70
2023-01-10T19:42:14.261Z,90.90
2023-01-10T19:44:46.534Z,90.00
2023-01-10T19:47:19.183Z,82.40
2023-01-10T19:49:51.688Z,80.40
2023-01-10T19:52:23.881Z,84.30
2023-01-10T19:54:56.175Z,104.00
2023-01-10T19:57:28.342Z,98.60
2023-01-10T20:00:00.689Z,130.50
2023-01-10T20:02:33.144Z,172.10
2023-01-10T20:05:05.835Z,174.60
2023-01-10T20:07:38.001Z,191.20
2023-01-10T20:10:12.621Z,155.30
2023-01-10T20:12:44.969Z,136.50
2023-01-10T20:15:17.497Z,127.00
2023-01-10T20:17:49.657Z,137.30
2023-01-10T20:20:23.670Z,175.50
2023-01-10T20:22:57.963Z,177.70
2023-01-10T20:25:30.180Z,158.10
2023-01-10T20:28:02.374Z,147.40
2023-01-10T20:30:34.594Z,112.50
2023-01-10T20:33:06.929Z,102.10
2023-01-10T20:35:40.397Z,88.30
2023-01-10T20:38:12.570Z,81.20
2023-01-10T20:40:44.879Z,70.20
2023-01-10T20:43:17.745Z,93.00
2023-01-10T20:45:50.120Z,134.70
2023-01-10T20:48:22.976Z,126.40
2023-01-10T20:50:55.243Z,163.80
2023-01-10T20:53:27.846Z,160.20
2023-01-10T20:56:04.431Z,150.90
2023-01-10T20:58:37.035Z,131.00
2023-01-10T21:01:09.967Z,137.90
2023-01-10T21:03:43.333Z,108.90
2023-01-10T21:06:16.956Z,117.30
2023-01-10T21:08:50.385Z,92.40
2023-01-10T21:11:23.265Z,83.50
2023-01-10T21:13:55.555Z,96.10
2023-01-10T21:16:27.780Z,95.80
2023-01-10T21:19:01.638Z,90.70
2023-01-10T21:21:33.887Z,92.40
2023-01-10T21:24:06.538Z,84.80
2023-01-10T21:26:39.089Z,82.80
2023-01-10T21:29:13.092Z,94.10
2023-01-10T21:31:45.629Z,129.60
2023-01-10T21:34:18.058Z,126.10
2023-01-10T21:36:51.496Z,100.30
2023-01-10T21:39:23.712Z,110.00
2023-01-10T21:42:13.540Z,83.10
2023-01-10T21:44:45.720Z,79.90
2023-01-10T21:47:18.021Z,79.30
2023-01-10T21:49:50.407Z,132.20
2023-01-10T21:52:22.815Z,111.00
2023-01-10T21:54:54.981Z,103.90
2023-01-10T21:57:28.179Z,104.20
2023-01-10T22:00:00.370Z,77.40
2023-01-10T22:02:32.611Z,89.90
2023-01-10T22:05:04.989Z,83.70
2023-01-10T22:07:37.292Z,95.70
2023-01-10T22:10:12.463Z,92.30
2023-01-10T22:12:44.620Z,101.70
2023-01-10T22:15:17.198Z,87.10
2023-01-10T22:17:49.506Z,78.50
2023-01-10T22:20:22.103Z,73.10
2023-01-10T22:22:54.411Z,81.20
2023-01-10T22:25:26.648Z,94.10
2023-01-10T22:27:58.827Z,111.00
2023-01-10T22:30:30.966Z,107.30
2023-01-10T22:33:03.272Z,114.90
2023-01-10T22:35:36.592Z,186.10
2023-01-10T22:38:08.882Z,130.00
2023-01-10T22:40:41.411Z,86.70
2023-01-10T22:43:13.886Z,83.70
2023-01-10T22:45:46.074Z,81.40
2023-01-10T22:48:18.302Z,70.60
2023-01-10T22:50:51.769Z,88.90
2023-01-10T22:53:24.162Z,77.70
2023-01-10T22:55:56.800Z,83.80
2023-01-10T22:58:29.522Z,95.00
2023-01-10T23:01:03.811Z,89.50
2023-01-10T23:03:36.566Z,84.50
2023-01-10T23:06:09.597Z,97.50
2023-01-10T23:08:42.505Z,108.30
2023-01-10T23:11:17.666Z,69.80
2023-01-10T23:13:50.560Z,60.40
2023-01-10T23:16:28.820Z,62.40
2023-01-10T23:19:01.953Z,71.70
2023-01-10T23:21:34.152Z,66.00
2023-01-10T23:24:07.349Z,72.70
2023-01-10T23:26:39.851Z,66.70
2023-01-10T23:29:12.546Z,76.90
2023-01-10T23:31:49.833Z,65.30
2023-01-10T23:34:22.059Z,78.90
2023-01-10T23:36:54.385Z,75.50
2023-01-10T23:39:26.597Z,66.20
2023-01-10T23:41:58.730Z,84.20
2023-01-10T23:44:31.675Z,103.50
2023-01-10T23:47:03.861Z,66.80
2023-01-10T23:49:36.142Z,60.40
2023-01-10T23:52:08.535Z,59.80
2023-01-10T23:54:40.813Z,79.60
2023-01-10T23:57:13.338Z,78.60
2023-01-10T23:59:45.554Z,97.20
